createdAt,value
2023-03-18T00:03:33.214Z,53.75
2023-03-18T00:08:36.491Z,53.71
2023-03-18T00:13:40.512Z,52.97
2023-03-18T00:18:43.137Z,53.01
2023-03-18T00:23:45.365Z,53.39
2023-03-18T00:28:47.474Z,53.13
2023-03-18T00:33:51.440Z,54.26
2023-03-18T00:38:58.100Z,54.07
2023-03-18T00:44:00.385Z,53.61
2023-03-18T00:49:08.643Z,54.50
2023-03-18T00:54:13.944Z,54.71
2023-03-18T00:59:16.410Z,55.03
2023-03-18T01:04:19.043Z,55.04
2023-03-18T01:09:21.236Z,55.18
2023-03-18T01:14:23.376Z,55.91
2023-03-18T01:19:27.020Z,55.49
2023-03-18T01:24:29.491Z,54.73
2023-03-18T01:29:31.597Z,54.43
2023-03-18T01:34:34.569Z,54.82
2023-03-18T01:39:37.414Z,54.82
2023-03-18T01:44:40.385Z,54.00
2023-03-18T01:49:49.756Z,54.59
2023-03-18T01:55:22.992Z,54.48
2023-03-18T02:00:25.421Z,54.75
2023-03-18T02:05:29.053Z,55.31
2023-03-18T02:10:32.970Z,54.87
2023-03-18T02:15:39.035Z,55.56
2023-03-18T02:21:02.988Z,55.47
2023-03-18T02:26:27.795Z,54.92
2023-03-18T02:31:30.242Z,55.95
2023-03-18T02:36:34.318Z,56.49
2023-03-18T02:41:37.914Z,57.18
2023-03-18T02:47:02.280Z,57.35
2023-03-18T02:52:05.293Z,57.83
2023-03-18T02:57:07.824Z,56.91
2023-03-18T03:02:10.092Z,57.37
2023-03-18T03:07:12.785Z,57.30
2023-03-18T03:12:15.060Z,57.53
2023-03-18T03:17:17.710Z,57.50
2023-03-18T03:22:20.136Z,57.59
2023-03-18T03:27:22.956Z,57.29
2023-03-18T03:32:25.112Z,57.23
2023-03-18T03:37:27.697Z,57.61
2023-03-18T03:42:29.974Z,58.48
2023-03-18T03:47:33.014Z,58.92
2023-03-18T03:52:35.210Z,58.91
2023-03-18T03:57:38.201Z,58.86
2023-03-18T04:02:42.375Z,58.74
2023-03-18T04:07:45.617Z,58.95
2023-03-18T04:12:49.088Z,59.23
2023-03-18T04:17:51.485Z,59.16
2023-03-18T04:22:54.132Z,59.38
2023-03-18T04:27:56.877Z,58.62
2023-03-18T04:33:00.574Z,58.41
2023-03-18T04:38:02.838Z,58.40
2023-03-18T04:43:05.052Z,59.29
2023-03-18T04:48:08.081Z,59.08
2023-03-18T04:53:10.357Z,59.64
2023-03-18T04:58:12.682Z,59.39
2023-03-18T05:03:14.993Z,59.40
2023-03-18T05:08:17.202Z,59.34
2023-03-18T05:13:19.739Z,59.17
2023-03-18T05:18:21.829Z,58.92
2023-03-18T05:23:24.385Z,60.41
2023-03-18T05:28:27.397Z,60.43
2023-03-18T05:33:30.328Z,60.61
2023-03-18T05:38:33.006Z,60.80
2023-03-18T05:43:35.977Z,60.37
2023-03-18T05:48:38.909Z,59.53
2023-03-18T05:53:41.387Z,59.53
2023-03-18T05:58:44.927Z,59.79
2023-03-18T06:03:47.964Z,60.44
2023-03-18T06:08:50.190Z,60.52
2023-03-18T06:13:52.666Z,59.51
2023-03-18T06:18:55.574Z,60.15
2023-03-18T06:23:57.999Z,60.40
2023-03-18T06:29:00.218Z,60.48
2023-03-18T06:34:02.369Z,59.97
2023-03-18T06:39:04.647Z,59.45
2023-03-18T06:44:08.050Z,59.57
2023-03-18T06:49:10.196Z,59.22
2023-03-18T06:54:12.935Z,58.55
2023-03-18T06:59:15.106Z,58.34
2023-03-18T07:04:17.391Z,57.61
2023-03-18T07:09:20.311Z,57.49
2023-03-18T07:14:22.803Z,56.58
2023-03-18T07:19:25.117Z,56.68
2023-03-18T07:24:27.421Z,55.84
2023-03-18T07:29:29.647Z,54.80
2023-03-18T07:34:32.961Z,54.47
2023-03-18T07:39:35.269Z,53.23
2023-03-18T07:44:38.837Z,52.55
2023-03-18T07:49:41.920Z,52.38
2023-03-18T07:54:44.976Z,51.65
2023-03-18T07:59:47.128Z,51.49
2023-03-18T08:04:49.348Z,51.79
2023-03-18T08:09:51.559Z,51.56
2023-03-18T08:14:53.891Z,51.33
2023-03-18T08:19:56.557Z,50.87
2023-03-18T08:24:58.856Z,50.04
2023-03-18T08:30:03.477Z,49.11
2023-03-18T08:35:06.553Z,48.91
2023-03-18T08:40:10.137Z,48.08
2023-03-18T08:45:13.577Z,47.33
2023-03-18T08:50:15.792Z,47.00
2023-03-18T08:55:17.922Z,46.38
2023-03-18T09:00:21.737Z,45.40
2023-03-18T09:05:24.407Z,44.59
2023-03-18T09:10:27.635Z,44.26
2023-03-18T09:15:30.439Z,43.57
2023-03-18T09:20:33.761Z,44.70
2023-03-18T09:25:36.416Z,44.89
2023-03-18T09:30:39.597Z,45.03
2023-03-18T09:35:43.109Z,44.52
2023-03-18T09:41:06.730Z,43.58
2023-03-18T09:46:13.704Z,43.71
2023-03-18T09:51:37.644Z,43.11
2023-03-18T09:56:40.512Z,42.99
2023-03-18T10:01:44.693Z,43.07
2023-03-18T10:06:49.350Z,43.04
2023-03-18T10:11:54.308Z,39.76
2023-03-18T10:17:17.373Z,40.55
2023-03-18T10:22:36.041Z,40.02
2023-03-18T10:28:26.698Z,38.32
2023-03-18T10:33:35.137Z,37.71
2023-03-18T10:38:38.732Z,38.61
2023-03-18T10:43:40.910Z,39.82
2023-03-18T10:48:45.745Z,39.65
2023-03-18T10:54:16.258Z,38.70
2023-03-18T10:59:21.098Z,39.02
2023-03-18T11:04:24.436Z,38.08
2023-03-18T11:09:36.515Z,38.12
2023-03-18T11:14:39.634Z,37.04
2023-03-18T11:19:51.038Z,36.95
2023-03-18T11:25:12.122Z,36.55
2023-03-18T11:30:34.442Z,37.02
2023-03-18T11:35:53.597Z,37.67
2023-03-18T11:41:17.199Z,38.35
2023-03-18T11:46:22.207Z,39.08
2023-03-18T11:51:40.506Z,39.49
2023-03-18T11:56:48.022Z,39.83
2023-03-18T12:02:13.489Z,39.95
2023-03-18T12:07:35.777Z,40.39
2023-03-18T12:12:57.065Z,40.43
2023-03-18T12:18:17.707Z,41.34
2023-03-18T12:23:26.902Z,40.88
2023-03-18T12:28:34.950Z,40.65
2023-03-18T12:33:57.516Z,40.46
2023-03-18T12:39:36.049Z,39.65
2023-03-18T12:44:58.220Z,39.13
2023-03-18T12:50:15.742Z,38.74
2023-03-18T12:55:27.373Z,39.04
2023-03-18T13:01:17.532Z,39.15
2023-03-18T13:06:34.467Z,38.46
2023-03-18T13:12:15.429Z,38.49
2023-03-18T13:17:47.394Z,38.76
2023-03-18T13:23:16.497Z,38.84
2023-03-18T13:28:45.463Z,38.77
2023-03-18T13:34:26.851Z,38.50
2023-03-18T13:39:45.313Z,38.40
2023-03-18T13:45:19.028Z,37.88
2023-03-18T13:50:21.686Z,37.38
2023-03-18T13:55:44.869Z,37.21
2023-03-18T14:01:16.028Z,36.92
2023-03-18T14:06:52.666Z,36.84
2023-03-18T14:11:55.064Z,36.34
2023-03-18T14:16:57.513Z,36.49
2023-03-18T14:22:06.757Z,36.60
2023-03-18T14:27:28.398Z,35.06
2023-03-18T14:32:39.081Z,35.17
2023-03-18T14:38:20.473Z,35.05
2023-03-18T14:43:29.735Z,35.31
2023-03-18T14:48:34.332Z,34.96
2023-03-18T14:53:40.283Z,34.09
2023-03-18T14:58:46.686Z,34.60
2023-03-18T15:03:50.299Z,35.22
2023-03-18T15:08:59.509Z,35.84
2023-03-18T15:14:02.396Z,36.01
2023-03-18T15:19:05.557Z,36.69
2023-03-18T15:24:09.797Z,36.89
2023-03-18T15:29:33.917Z,37.54
2023-03-18T15:34:42.682Z,38.58
2023-03-18T15:39:46.215Z,39.53
2023-03-18T15:45:02.308Z,39.15
2023-03-18T15:50:20.275Z,39.50
2023-03-18T15:55:30.672Z,39.75
2023-03-18T16:00:35.143Z,40.08
2023-03-18T16:05:39.043Z,40.47
2023-03-18T16:10:41.824Z,40.55
2023-03-18T16:15:45.140Z,40.70
2023-03-18T16:20:48.503Z,41.32
2023-03-18T16:25:53.214Z,41.38
2023-03-18T16:30:58.157Z,41.64
2023-03-18T16:36:02.935Z,42.00
2023-03-18T16:41:05.576Z,42.21
2023-03-18T16:46:13.510Z,43.05
2023-03-18T16:51:15.650Z,43.70
2023-03-18T16:56:21.099Z,44.33
2023-03-18T17:01:25.193Z,44.28
2023-03-18T17:06:27.433Z,44.67
2023-03-18T17:11:29.602Z,45.16
2023-03-18T17:16:32.446Z,45.49
2023-03-18T17:21:34.764Z,46.65
2023-03-18T17:26:36.964Z,46.00
2023-03-18T17:31:39.194Z,45.60
2023-03-18T17:36:42.345Z,45.54
2023-03-18T17:41:44.565Z,45.47
2023-03-18T17:46:47.305Z,45.29
2023-03-18T17:51:50.090Z,45.08
2023-03-18T17:56:53.218Z,44.68
2023-03-18T18:01:55.857Z,44.45
2023-03-18T18:06:58.079Z,44.15
2023-03-18T18:12:00.299Z,44.10
2023-03-18T18:17:03.109Z,44.19
2023-03-18T18:22:05.359Z,43.93
2023-03-18T18:27:13.598Z,43.63
2023-03-18T18:32:15.986Z,43.53
2023-03-18T18:37:18.193Z,43.48
2023-03-18T18:42:20.296Z,43.03
2023-03-18T18:47:23.999Z,43.05
2023-03-18T18:52:26.230Z,43.14
2023-03-18T18:57:34.040Z,43.14
2023-03-18T19:02:37.996Z,43.17
2023-03-18T19:07:42.999Z,43.10
2023-03-18T19:12:45.160Z,43.13
2023-03-18T19:17:48.227Z,43.42
2023-03-18T19:22:51.137Z,42.96
2023-03-18T19:27:55.273Z,42.87
2023-03-18T19:33:00.116Z,42.74
2023-03-18T19:38:02.866Z,42.91
2023-03-18T19:43:18.229Z,43.19
2023-03-18T19:48:24.267Z,43.34
2023-03-18T19:53:28.946Z,43.63
2023-03-18T19:58:32.132Z,45.47
2023-03-18T20:03:35.730Z,46.58
2023-03-18T20:08:37.877Z,45.82
2023-03-18T20:13:40.626Z,45.26
2023-03-18T20:18:44.262Z,45.20
2023-03-18T20:23:46.544Z,45.00
2023-03-18T20:28:53.993Z,45.84
2023-03-18T20:33:56.381Z,46.19
2023-03-18T20:38:58.586Z,45.84
2023-03-18T20:44:01.963Z,46.64
2023-03-18T20:49:05.011Z,45.57
2023-03-18T20:54:19.221Z,45.21
2023-03-18T20:59:21.367Z,45.67
2023-03-18T21:04:23.491Z,45.79
2023-03-18T21:09:25.786Z,45.73
2023-03-18T21:14:28.043Z,45.45
2023-03-18T21:19:30.238Z,46.03
2023-03-18T21:24:33.070Z,47.25
2023-03-18T21:29:35.489Z,51.06
2023-03-18T21:34:38.575Z,49.79
2023-03-18T21:39:40.759Z,47.99
2023-03-18T21:44:42.997Z,47.31
2023-03-18T21:49:46.737Z,46.92
2023-03-18T21:54:49.737Z,47.53
2023-03-18T21:59:53.669Z,47.47
2023-03-18T22:05:00.233Z,47.45
2023-03-18T22:10:02.763Z,47.70
2023-03-18T22:15:26.871Z,47.73
2023-03-18T22:20:29.454Z,47.76
2023-03-18T22:25:35.420Z,48.10
2023-03-18T22:30:38.384Z,47.80
2023-03-18T22:35:40.649Z,47.72
2023-03-18T22:40:44.626Z,48.03
2023-03-18T22:45:46.848Z,48.10
2023-03-18T22:50:50.806Z,48.56
2023-03-18T22:55:55.913Z,49.02
2023-03-18T23:00:58.081Z,49.05
2023-03-18T23:06:02.518Z,48.76
2023-03-18T23:11:04.766Z,48.57
2023-03-18T23:16:12.634Z,48.39
2023-03-18T23:21:20.747Z,48.92
2023-03-18T23:26:23.007Z,49.06
2023-03-18T23:31:25.263Z,49.10
2023-03-18T23:36:27.424Z,49.25
2023-03-18T23:41:29.479Z,48.93
2023-03-18T23:46:31.884Z,49.37
2023-03-18T23:51:33.982Z,49.17
2023-03-18T23:56:36.522Z,49.42
